メインページ
METAR-TAF:

METAR-TAF

空港 :

アルジェ, アルジェリア

ウアリ・ブーメディアン空港

緯度: 36-43N, 経度: 003-15E, 海抜: 25m

現時点の気象観測

当レポートは34分前の14:00(UTC)に作成
西の風 20kt
気温 19°C
湿度 56%
気圧 1024 hPa
視程10km以上
高度3000ftの雲はほとんどない

METAR: DAAG 211400Z 27020KT 9999 FEW030 19/10 Q1024

時間: 15:34 (14:34 UTC)

予報

当レポートは3時間34分前の11:00(UTC)に作成
予報は21日の 12時(UTC)から 22日の 12時(UTC)まで有効
西の風 15kt
視程10km以上
1,500メートル以下は雲なし、積乱雲なし
21日の 20時(UTC)から 21日の 24時(UTC)まで徐々に
変向風 2kt

TAF: DAAG 211100Z 2112/2212 26015KT CAVOK BECMG 2120/2124 VRB02KT

4,000以上の空港の気象観測と天気予報(METAR報とTAF報)

利用可能な観測所は地図上に黄色い丸と赤い丸で示す。

丸の上にカーソルを重ねると観測所名を参照できる。

次にクリックすると気象観測と天気予報を参照できる。

マップの切り替え:黒色「×」印の緑ボタンをクリックして拡大、「-」印の緑ボタンをクリックして縮小、緑色の三角印をクリックして隣りの地図に切り替え


METAR-TAF: